North Henderson, Illinois
Current Conditions -  °F | °C
As of 9:35 PM on Saturday 24 Jan 2015 (Local Time) from KGBG Reporting Station
Clear Clear  
Wind Chill: 33°   Ceiling: Unl
Heat Index: 37°   Visibility: 10mi
Dew Point: 33°   Wind: 5mph
Humidity: 87%   Direction: 200°SSW
Pressure: 29.64"   Gusts: NA
Location:  41.09°N, 90.48°W
Report Text: KGBG 250335Z AUTO 20004KT 10SM CLR 03/01 A2964 RMK AO2 T00260006
Loading
Personal Weather Stations






























Interactive Weather Map New forecast layout! Learn more

10-Day Weather Forecast

Advertisements
Track Severe Weather on mobile